Time;durP1;ratioP1;P1;durP2;ratioP2;P2;SDS_P1;SDS_P2;PMS_P1;PMS_P2;Temp;Humidity;BMP_temperature;BMP_pressure;BME280_temperature;BME280_humidity;BME280_pressure;Samples;Min_cycle;Max_cycle;Signal;HPM_P1;HPM_P2
2022/09/05 00:02:54;;;;;;;;;;;19.60;96.20;;;;;;5904031;23;19919;-82
2022/09/05 00:05:53;;;;;;;;;;;19.50;96.30;;;;;;5980125;24;20353;-82
2022/09/05 00:15:32;;;;;;;;;;;;;;;;;;;;;
2022/09/05 00:18:19;;;;;;;;;;;19.50;96.40;;;;;;6033137;23;19940;-83
2022/09/05 00:24:15;;;;;;;;;;;19.40;96.50;;;;;;6023304;23;19933;-80
2022/09/05 00:31:09;;;;;;;;;;;;;;;;;;;;;
2022/09/05 00:34:23;;;;;;;;;;;19.40;96.80;;;;;;6037458;23;19933;-81
2022/09/05 00:37:12;;;;;;;;;;;19.30;96.80;;;;;;6031851;23;19925;-83
2022/09/05 00:40:21;;;;;;;;;;;;;;;;;;;;;
2022/09/05 00:43:30;;;;;;;;;;;19.10;97.10;;;;;;6069900;23;19964;-81
2022/09/05 00:46:56;;;;;;;;;;;;;;;;;;;;;
2022/09/05 00:57:02;;;;;;;;;;;19.10;97.30;;;;;;6094961;23;19944;-83
2022/09/05 00:59:52;;;;;;;;;;;19.00;97.50;;;;;;6128858;23;19917;-82
2022/09/05 01:13:36;;;;;;;;;;;;;;;;;;;;;
2022/09/05 01:19:42;;;;;;;;;;;18.90;97.90;;;;;;6246272;23;19933;-83
2022/09/05 01:22:38;;;;;;;;;;;18.80;98.00;;;;;;6078113;23;20037;-82
2022/09/05 01:25:44;;;;;;;;;;;18.80;98.10;;;;;;6203541;23;19922;-81
2022/09/05 01:35:11;;;;;;;;;;;18.60;98.50;;;;;;6175065;23;19916;-82
2022/09/05 01:45:24;;;;;;;;;;;18.40;99.10;;;;;;6154550;23;19965;-81
2022/09/05 01:48:29;;;;;;;;;;;18.30;99.30;;;;;;6162266;23;20271;-82
2022/09/05 01:51:34;;;;;;;;;;;;;;;;;;;;;
2022/09/05 01:54:27;;;;;;;;;;;18.30;99.50;;;;;;6117684;23;19947;-82
2022/09/05 02:00:38;;;;;;;;;;;18.10;99.90;;;;;;6094522;23;19932;-81
2022/09/05 02:03:46;;;;;;;;;;;;;;;;;;;;;
2022/09/05 02:13:51;;;;;;;;;;;18.00;99.90;;;;;;6129538;23;19987;-84
2022/09/05 02:16:57;;;;;;;;;;;17.90;99.90;;;;;;6154779;23;19951;-80
2022/09/05 02:20:10;;;;;;;;;;;17.90;99.90;;;;;;6150800;23;19924;-83
2022/09/05 02:26:50;;;;;;;;;;;17.80;99.90;;;;;;6070044;23;19921;-82
2022/09/05 02:33:18;;;;;;;;;;;17.70;99.90;;;;;;5926559;24;20262;-81
2022/09/05 02:36:27;;;;;;;;;;;17.70;99.90;;;;;;6006383;23;19918;-84
2022/09/05 02:42:46;;;;;;;;;;;17.50;99.90;;;;;;6071081;23;19989;-81
2022/09/05 02:45:49;;;;;;;;;;;17.50;99.90;;;;;;6056502;23;19916;-82
2022/09/05 02:52:12;;;;;;;;;;;17.40;99.90;;;;;;6154290;23;20419;-82
2022/09/05 02:54:58;;;;;;;;;;;17.30;99.90;;;;;;6104648;23;20352;-81
2022/09/05 03:01:22;;;;;;;;;;;;;;;;;;;;;
2022/09/05 03:11:02;;;;;;;;;;;17.20;99.90;;;;;;6101727;23;19948;-82
2022/09/05 03:13:54;;;;;;;;;;;17.10;99.90;;;;;;6101789;23;19921;-83
2022/09/05 03:16:57;;;;;;;;;;;;;;;;;;;;;
2022/09/05 03:19:55;;;;;;;;;;;17.10;99.90;;;;;;6066542;23;19932;-82
2022/09/05 03:23:02;;;;;;;;;;;;;;;;;;;;;
2022/09/05 03:29:02;;;;;;;;;;;16.90;99.90;;;;;;6038098;23;19922;-83
2022/09/05 03:46:06;;;;;;;;;;;;;;;;;;;;;
2022/09/05 03:49:21;;;;;;;;;;;;;;;;;;;;;
2022/09/05 03:55:51;;;;;;;;;;;16.80;99.90;;;;;;5987303;23;19917;-81
2022/09/05 03:58:49;;;;;;;;;;;16.70;99.90;;;;;;6067145;23;19921;-83
2022/09/05 04:01:55;;;;;;;;;;;16.70;99.90;;;;;;6073274;23;19967;-82
2022/09/05 04:04:42;;;;;;;;;;;;;;;;;;;;;
2022/09/05 04:07:26;;;;;;;;;;;16.70;99.90;;;;;;6070156;23;19922;-79
2022/09/05 04:13:32;;;;;;;;;;;;;;;;;;;;;
2022/09/05 04:23:14;;;;;;;;;;;16.40;99.90;;;;;;6092191;23;20236;-81
2022/09/05 04:25:57;;;;;;;;;;;16.40;99.90;;;;;;6190059;23;19923;-78
2022/09/05 04:32:10;;;;;;;;;;;16.30;99.90;;;;;;6124617;23;20355;-81
2022/09/05 04:34:51;;;;;;;;;;;16.30;99.90;;;;;;6076141;23;19947;-81
2022/09/05 04:37:37;;;;;;;;;;;16.30;99.90;;;;;;6157573;23;19916;-82
2022/09/05 04:40:22;;;;;;;;;;;16.30;99.90;;;;;;6188247;23;19950;-81
2022/09/05 04:42:50;;;;;;;;;;;16.30;99.90;;;;;;6190772;23;19920;-81
2022/09/05 04:45:17;;;;;;;;;;;16.30;99.90;;;;;;6190417;23;19922;-81
2022/09/05 04:47:46;;;;;;;;;;;16.30;99.90;;;;;;6189680;23;19920;-82
2022/09/05 04:50:32;;;;;;;;;;;16.20;99.90;;;;;;6216083;23;20319;-83
2022/09/05 04:53:07;;;;;;;;;;;16.20;99.90;;;;;;6191114;23;19927;-82
2022/09/05 04:55:48;;;;;;;;;;;16.20;99.90;;;;;;6209265;23;19908;-86
2022/09/05 04:58:23;;;;;;;;;;;16.20;99.90;;;;;;6216605;23;19908;-83
2022/09/05 05:00:56;;;;;;;;;;;16.20;99.90;;;;;;6217347;23;19911;-80
2022/09/05 05:03:29;;;;;;;;;;;16.10;99.90;;;;;;6218185;23;19911;-81
2022/09/05 05:05:57;;;;;;;;;;;16.30;99.90;;;;;;6209998;23;20339;-78
2022/09/05 05:08:30;;;;;;;;;;;16.10;99.90;;;;;;6188883;23;19920;-82
2022/09/05 05:10:59;;;;;;;;;;;16.10;99.90;;;;;;6189182;23;19920;-83
2022/09/05 05:13:29;;;;;;;;;;;16.10;99.90;;;;;;6194913;23;20232;-79
2022/09/05 05:15:56;;;;;;;;;;;16.10;99.90;;;;;;6198606;23;19915;-80
2022/09/05 05:18:29;;;;;;;;;;;16.10;99.90;;;;;;6196165;23;19947;-79
2022/09/05 05:21:01;;;;;;;;;;;16.10;99.90;;;;;;6191957;23;19915;-81
2022/09/05 05:23:41;;;;;;;;;;;16.10;99.90;;;;;;6191435;23;19923;-82
2022/09/05 05:26:21;;;;;;;;;;;16.20;99.90;;;;;;6191686;23;19915;-82
2022/09/05 05:28:59;;;;;;;;;;;16.20;99.90;;;;;;6191843;23;19930;-83
2022/09/05 05:31:29;;;;;;;;;;;16.30;99.90;;;;;;6191722;23;19970;-79
2022/09/05 05:33:57;;;;;;;;;;;16.30;99.90;;;;;;6191743;23;19916;-80
2022/09/05 05:36:28;;;;;;;;;;;16.20;99.90;;;;;;6192634;23;19962;-80
2022/09/05 05:38:59;;;;;;;;;;;16.30;99.90;;;;;;6191562;23;20382;-81
2022/09/05 05:41:31;;;;;;;;;;;16.30;99.90;;;;;;6216813;23;19962;-80
2022/09/05 05:44:08;;;;;;;;;;;16.40;99.90;;;;;;6191611;23;19987;-81
2022/09/05 05:46:37;;;;;;;;;;;16.50;99.90;;;;;;6191707;23;20350;-83
2022/09/05 05:49:17;;;;;;;;;;;16.60;99.90;;;;;;6192278;23;19922;-81
2022/09/05 05:51:56;;;;;;;;;;;16.80;99.90;;;;;;6191572;23;19923;-79
2022/09/05 05:54:41;;;;;;;;;;;16.80;99.90;;;;;;6191627;23;19991;-83
2022/09/05 05:57:20;;;;;;;;;;;17.10;99.90;;;;;;6191459;23;20375;-81
2022/09/05 05:59:54;;;;;;;;;;;17.20;99.90;;;;;;6191454;23;19952;-83
2022/09/05 06:02:32;;;;;;;;;;;17.30;99.90;;;;;;6191262;23;19944;-82
2022/09/05 06:05:16;;;;;;;;;;;17.40;99.90;;;;;;6191607;23;19950;-81
2022/09/05 06:07:52;;;;;;;;;;;17.40;99.90;;;;;;6191910;23;19927;-82
2022/09/05 06:10:36;;;;;;;;;;;17.40;99.90;;;;;;6191479;23;20003;-81
2022/09/05 06:13:14;;;;;;;;;;;17.40;99.90;;;;;;6191199;23;20323;-80
2022/09/05 06:16:02;;;;;;;;;;;17.30;99.90;;;;;;6190947;23;20297;-80
2022/09/05 06:18:47;;;;;;;;;;;17.30;99.90;;;;;;6191222;23;20378;-81
2022/09/05 06:21:33;;;;;;;;;;;17.50;99.90;;;;;;6191174;23;20297;-80
2022/09/05 06:24:05;;;;;;;;;;;17.60;99.90;;;;;;6191207;23;19923;-83
2022/09/05 06:26:48;;;;;;;;;;;17.70;99.90;;;;;;6190726;23;20242;-80
2022/09/05 06:29:23;;;;;;;;;;;17.90;99.90;;;;;;6190736;23;19916;-82
2022/09/05 06:32:16;;;;;;;;;;;18.00;99.90;;;;;;6191767;23;19951;-80
2022/09/05 06:34:54;;;;;;;;;;;18.20;99.90;;;;;;6191377;23;20327;-83
2022/09/05 06:37:33;;;;;;;;;;;18.30;99.90;;;;;;6191173;23;19958;-81
2022/09/05 06:40:06;;;;;;;;;;;18.50;99.90;;;;;;6191313;23;20370;-83
2022/09/05 06:42:34;;;;;;;;;;;18.70;99.90;;;;;;6191422;23;20292;-83
2022/09/05 06:45:06;;;;;;;;;;;18.90;99.90;;;;;;6192243;23;19916;-80
2022/09/05 06:47:34;;;;;;;;;;;19.00;99.90;;;;;;6197623;23;19973;-81
2022/09/05 06:50:10;;;;;;;;;;;19.10;99.90;;;;;;6195232;23;20278;-79
2022/09/05 06:52:42;;;;;;;;;;;19.30;99.90;;;;;;6190257;23;19915;-81
2022/09/05 06:55:23;;;;;;;;;;;19.30;99.90;;;;;;6189908;23;19970;-79
2022/09/05 06:58:06;;;;;;;;;;;19.60;99.90;;;;;;6191314;23;19922;-77
2022/09/05 07:00:41;;;;;;;;;;;19.80;99.90;;;;;;6191067;23;19916;-82
2022/09/05 07:03:26;;;;;;;;;;;19.90;99.90;;;;;;6190606;23;19916;-80
2022/09/05 07:06:04;;;;;;;;;;;20.10;99.90;;;;;;6190944;23;19943;-84
2022/09/05 07:08:52;;;;;;;;;;;20.10;99.90;;;;;;6215884;23;19924;-81
2022/09/05 07:11:33;;;;;;;;;;;20.30;99.90;;;;;;6190656;23;19924;-84
2022/09/05 07:14:07;;;;;;;;;;;20.50;99.90;;;;;;6189751;23;20338;-86
2022/09/05 07:16:39;;;;;;;;;;;20.60;99.90;;;;;;6190534;23;19916;-82
2022/09/05 07:19:13;;;;;;;;;;;20.80;99.90;;;;;;6189684;23;19915;-80
2022/09/05 07:21:41;;;;;;;;;;;20.80;99.90;;;;;;6189616;23;19954;-82
2022/09/05 07:24:14;;;;;;;;;;;21.00;99.90;;;;;;6190495;23;20150;-81
2022/09/05 07:26:48;;;;;;;;;;;21.20;99.90;;;;;;6190105;23;20002;-79
2022/09/05 07:29:26;;;;;;;;;;;21.30;99.90;;;;;;6190415;23;20224;-79
2022/09/05 07:31:53;;;;;;;;;;;21.40;99.90;;;;;;6190571;23;19948;-79
2022/09/05 07:34:32;;;;;;;;;;;21.50;99.90;;;;;;6190188;23;19991;-81
2022/09/05 07:37:14;;;;;;;;;;;21.50;99.90;;;;;;6189641;23;19962;-80
2022/09/05 07:43:16;;;;;;;;;;;21.60;99.90;;;;;;6197871;23;19922;-81
2022/09/05 07:46:01;;;;;;;;;;;21.80;99.90;;;;;;6096344;23;19916;-81
2022/09/05 07:49:23;;;;;;;;;;;21.70;99.90;;;;;;6076383;23;19928;-81
2022/09/05 07:51:55;;;;;;;;;;;21.70;99.90;;;;;;6052835;23;19988;-81
2022/09/05 07:54:31;;;;;;;;;;;22.00;99.90;;;;;;6099951;23;19916;-80
2022/09/05 07:57:08;;;;;;;;;;;22.00;99.90;;;;;;6076073;23;19917;-80
2022/09/05 07:59:41;;;;;;;;;;;22.00;99.90;;;;;;6093790;23;19943;-80
2022/09/05 08:02:09;;;;;;;;;;;22.00;99.90;;;;;;6190174;23;19951;-79
2022/09/05 08:04:36;;;;;;;;;;;22.10;99.90;;;;;;6190145;23;20319;-80
2022/09/05 08:07:19;;;;;;;;;;;22.20;99.90;;;;;;6190019;23;19919;-80
2022/09/05 08:10:05;;;;;;;;;;;22.30;99.90;;;;;;6188692;23;20316;-80
2022/09/05 08:12:39;;;;;;;;;;;22.50;99.90;;;;;;6190737;23;19923;-81
2022/09/05 08:15:11;;;;;;;;;;;22.40;99.90;;;;;;6190610;23;19916;-80
2022/09/05 08:17:51;;;;;;;;;;;22.70;99.90;;;;;;6190120;23;20251;-81
2022/09/05 08:20:20;;;;;;;;;;;22.80;99.80;;;;;;6189940;23;19923;-80
2022/09/05 08:22:54;;;;;;;;;;;22.80;99.60;;;;;;6190480;23;20333;-80
2022/09/05 08:25:36;;;;;;;;;;;22.90;99.20;;;;;;6190487;23;19987;-81
2022/09/05 08:28:21;;;;;;;;;;;23.00;99.20;;;;;;6189694;23;19927;-81
2022/09/05 08:31:13;;;;;;;;;;;23.00;99.10;;;;;;6189586;23;19916;-80
2022/09/05 08:33:52;;;;;;;;;;;23.10;98.90;;;;;;6190545;23;19962;-82
2022/09/05 08:36:27;;;;;;;;;;;22.90;99.00;;;;;;6190649;23;19966;-81
2022/09/05 08:39:13;;;;;;;;;;;22.70;99.40;;;;;;6186873;23;19922;-81
2022/09/05 08:41:57;;;;;;;;;;;23.10;99.50;;;;;;6190231;23;19923;-80
2022/09/05 09:12:18;;;;;;;;;;;25.20;96.40;;;;;;5922845;24;19992;-78
2022/09/05 09:15:13;;;;;;;;;;;25.20;96.20;;;;;;5935879;24;19929;-79
2022/09/05 09:17:38;;;;;;;;;;;25.30;96.10;;;;;;6040676;23;19987;-73
2022/09/05 09:20:10;;;;;;;;;;;25.30;96.30;;;;;;6166003;23;19948;-71
2022/09/05 09:26:10;;;;;;;;;;;25.60;95.40;;;;;;6189128;23;19927;-74
2022/09/05 09:28:51;;;;;;;;;;;25.70;95.50;;;;;;6165749;23;19920;-73
2022/09/05 09:31:38;;;;;;;;;;;25.60;95.60;;;;;;6165887;23;19916;-73
2022/09/05 09:34:03;;;;;;;;;;;25.80;95.30;;;;;;6190587;23;19919;-72
2022/09/05 09:36:32;;;;;;;;;;;25.80;95.30;;;;;;6166287;23;20001;-74
2022/09/05 09:39:28;;;;;;;;;;;26.00;95.50;;;;;;6166317;23;19920;-75
2022/09/05 09:42:03;;;;;;;;;;;26.10;95.00;;;;;;6190238;23;19920;-77
2022/09/05 09:44:56;;;;;;;;;;;26.20;94.70;;;;;;6166487;23;20013;-76
2022/09/05 11:13:59;;;;;;;;;;;28.30;89.30;;;;;;6186748;23;19963;-79
2022/09/05 11:16:59;;;;;;;;;;;28.30;88.10;;;;;;6185767;23;19916;-82
2022/09/05 11:23:12;;;;;;;;;;;;;;;;;;;;;
2022/09/05 11:30:12;;;;;;;;;;;28.60;87.10;;;;;;6035120;23;20349;-75
2022/09/05 11:36:06;;;;;;;;;;;28.50;86.60;;;;;;6038744;23;19917;-75
2022/09/05 11:39:10;;;;;;;;;;;28.80;85.60;;;;;;6007549;23;19922;-75
2022/09/05 11:41:57;;;;;;;;;;;28.60;85.90;;;;;;5995212;23;19922;-79
2022/09/05 11:44:25;;;;;;;;;;;28.70;82.80;;;;;;6042482;23;19906;-81
2022/09/05 15:15:37;;;;;;;;;;;28.20;68.40;;;;;;6216784;23;19911;-75
2022/09/05 15:21:27;;;;;;;;;;;28.20;66.90;;;;;;6216776;23;19911;-76
2022/09/05 15:23:58;;;;;;;;;;;28.10;68.30;;;;;;6164950;23;20319;-77
2022/09/05 15:26:23;;;;;;;;;;;28.10;67.10;;;;;;6165235;23;20334;-77
2022/09/05 15:32:12;;;;;;;;;;;28.10;67.90;;;;;;6154172;23;19912;-77
2022/09/05 15:34:38;;;;;;;;;;;28.00;69.70;;;;;;6129738;23;19971;-78
2022/09/05 15:41:14;;;;;;;;;;;28.10;67.90;;;;;;6166516;23;20330;-77
2022/09/05 15:44:06;;;;;;;;;;;28.00;66.70;;;;;;6165366;23;19956;-82
2022/09/05 15:46:55;;;;;;;;;;;28.00;68.60;;;;;;6124464;23;19917;-79
2022/09/05 15:53:02;;;;;;;;;;;28.00;68.40;;;;;;6099342;23;19935;-79
2022/09/05 15:58:58;;;;;;;;;;;28.10;67.80;;;;;;6130265;23;20363;-77
2022/09/05 16:01:43;;;;;;;;;;;28.10;67.50;;;;;;6100722;23;19920;-81
2022/09/05 16:04:13;;;;;;;;;;;28.10;66.90;;;;;;6092858;23;20271;-81
2022/09/05 16:07:00;;;;;;;;;;;28.20;65.50;;;;;;6099284;23;19995;-81
2022/09/05 16:16:43;;;;;;;;;;;28.10;66.80;;;;;;6124350;23;19911;-78
2022/09/05 16:19:55;;;;;;;;;;;28.10;66.20;;;;;;6190301;23;19962;-76
2022/09/05 16:23:08;;;;;;;;;;;28.00;67.40;;;;;;6193457;23;19911;-81
2022/09/05 16:47:24;;;;;;;;;;;27.20;72.70;;;;;;6095029;23;20031;-78
2022/09/05 16:49:49;;;;;;;;;;;27.10;72.90;;;;;;6105784;23;19924;-77
2022/09/05 16:56:08;;;;;;;;;;;26.90;74.30;;;;;;6185969;23;19947;-77
2022/09/05 16:58:46;;;;;;;;;;;26.90;73.70;;;;;;6159935;23;20032;-78
2022/09/05 17:01:38;;;;;;;;;;;26.80;75.10;;;;;;6159688;23;20271;-75
2022/09/05 17:04:07;;;;;;;;;;;26.70;76.50;;;;;;6185589;23;19919;-75
2022/09/05 17:06:37;;;;;;;;;;;26.60;77.60;;;;;;6159462;23;19912;-75
2022/09/05 17:09:10;;;;;;;;;;;26.40;79.50;;;;;;6159896;23;19916;-75
2022/09/05 17:11:39;;;;;;;;;;;26.40;81.70;;;;;;6160948;23;19920;-74
2022/09/05 17:14:16;;;;;;;;;;;26.20;84.10;;;;;;6161900;23;19916;-74
2022/09/05 17:16:44;;;;;;;;;;;26.00;82.70;;;;;;6217861;23;19923;-75
2022/09/05 17:19:21;;;;;;;;;;;25.90;83.80;;;;;;6167083;23;19920;-73
2022/09/05 17:22:04;;;;;;;;;;;25.80;84.20;;;;;;6167069;23;20291;-74
2022/09/05 17:24:30;;;;;;;;;;;25.70;84.50;;;;;;6218296;23;20238;-72
2022/09/05 17:27:12;;;;;;;;;;;25.50;84.90;;;;;;6166490;23;19916;-74
2022/09/05 17:29:52;;;;;;;;;;;25.30;88.00;;;;;;6191510;23;20377;-73
2022/09/05 17:32:40;;;;;;;;;;;25.10;90.30;;;;;;6191887;23;19920;-74
2022/09/05 17:35:19;;;;;;;;;;;24.90;90.80;;;;;;6191758;23;20260;-74
2022/09/05 17:38:01;;;;;;;;;;;24.70;92.30;;;;;;6218136;23;20357;-76
2022/09/05 17:40:35;;;;;;;;;;;24.50;92.70;;;;;;6167004;23;19959;-78
2022/09/05 17:43:02;;;;;;;;;;;24.50;93.80;;;;;;6166991;23;19939;-78
2022/09/05 17:45:46;;;;;;;;;;;24.40;93.80;;;;;;6178642;23;19919;-76
2022/09/05 17:48:15;;;;;;;;;;;24.30;94.80;;;;;;6191267;23;19920;-76
2022/09/05 17:50:50;;;;;;;;;;;24.10;95.00;;;;;;6191158;23;20319;-73
2022/09/05 17:53:19;;;;;;;;;;;23.90;96.30;;;;;;6191122;23;19966;-76
2022/09/05 17:55:46;;;;;;;;;;;23.70;97.30;;;;;;6191582;23;19920;-75
2022/09/05 17:58:21;;;;;;;;;;;23.50;97.40;;;;;;6216363;23;19916;-76
2022/09/05 18:00:50;;;;;;;;;;;23.40;98.50;;;;;;6190898;23;19911;-79
2022/09/05 18:03:36;;;;;;;;;;;23.30;99.40;;;;;;6217403;23;19950;-75
2022/09/05 18:06:20;;;;;;;;;;;23.10;99.90;;;;;;6191589;23;19947;-75
2022/09/05 18:09:08;;;;;;;;;;;;;;;;;;;;;
2022/09/05 18:11:38;;;;;;;;;;;22.70;99.90;;;;;;6214598;23;19950;-75
2022/09/05 18:14:14;;;;;;;;;;;22.60;99.90;;;;;;6191360;23;20238;-74
2022/09/05 18:16:49;;;;;;;;;;;22.50;99.90;;;;;;6216504;23;19916;-74
2022/09/05 18:19:30;;;;;;;;;;;22.30;99.90;;;;;;6192300;23;19918;-75
2022/09/05 18:22:23;;;;;;;;;;;22.30;99.90;;;;;;6200370;23;19919;-76
2022/09/05 18:25:13;;;;;;;;;;;;;;;;;;;;;
2022/09/05 18:27:52;;;;;;;;;;;22.20;99.90;;;;;;6215065;23;19916;-74
2022/09/05 18:30:18;;;;;;;;;;;22.10;99.90;;;;;;6188667;23;19919;-75
2022/09/05 18:32:50;;;;;;;;;;;22.10;99.90;;;;;;6189940;23;19912;-75
2022/09/05 18:35:27;;;;;;;;;;;22.00;99.90;;;;;;6190976;23;19912;-75
2022/09/05 18:38:00;;;;;;;;;;;21.90;99.90;;;;;;6167137;23;19912;-77
2022/09/05 18:40:37;;;;;;;;;;;21.90;99.90;;;;;;6216240;23;19912;-74
2022/09/05 18:43:13;;;;;;;;;;;21.80;99.90;;;;;;6216093;23;19912;-75
2022/09/05 18:45:48;;;;;;;;;;;21.70;99.90;;;;;;6215131;23;19923;-76
2022/09/05 18:48:16;;;;;;;;;;;21.60;99.90;;;;;;6190920;23;20318;-70
2022/09/05 18:50:44;;;;;;;;;;;21.50;99.90;;;;;;6215979;23;19934;-71
2022/09/05 18:53:11;;;;;;;;;;;21.40;99.90;;;;;;6215375;23;19916;-72
2022/09/05 18:55:38;;;;;;;;;;;21.40;99.90;;;;;;6165560;23;19946;-72
2022/09/05 18:58:05;;;;;;;;;;;21.40;99.90;;;;;;6214399;23;19919;-71
2022/09/05 19:00:33;;;;;;;;;;;21.40;99.90;;;;;;6214221;23;20320;-72
2022/09/05 19:03:02;;;;;;;;;;;21.40;99.90;;;;;;6215519;23;20285;-71
2022/09/05 19:05:31;;;;;;;;;;;21.50;99.90;;;;;;6190625;23;19916;-71
2022/09/05 19:07:58;;;;;;;;;;;21.60;99.90;;;;;;6215714;23;19916;-71
2022/09/05 19:10:28;;;;;;;;;;;21.70;99.90;;;;;;6189098;23;19916;-71
2022/09/05 19:12:59;;;;;;;;;;;21.80;99.90;;;;;;6215495;23;19916;-73
2022/09/05 19:15:30;;;;;;;;;;;21.80;99.90;;;;;;6213112;23;19919;-72
2022/09/05 19:17:57;;;;;;;;;;;21.90;99.90;;;;;;6189619;23;19959;-71
2022/09/05 19:20:24;;;;;;;;;;;21.90;99.90;;;;;;6214418;23;20208;-74
2022/09/05 19:22:58;;;;;;;;;;;21.90;99.90;;;;;;6214659;23;19911;-75
2022/09/05 19:25:37;;;;;;;;;;;22.00;99.90;;;;;;6214376;23;19988;-73
2022/09/05 19:28:23;;;;;;;;;;;21.80;99.90;;;;;;6216028;23;19912;-71
2022/09/05 19:31:11;;;;;;;;;;;21.80;99.90;;;;;;6189116;23;19923;-74
2022/09/05 19:33:36;;;;;;;;;;;21.90;99.90;;;;;;6189633;23;19918;-75
2022/09/05 19:36:16;;;;;;;;;;;21.90;99.90;;;;;;6214229;23;19987;-76
2022/09/05 19:43:13;;;;;;;;;;;21.80;99.90;;;;;;6037066;23;19913;-78
2022/09/05 19:45:48;;;;;;;;;;;21.80;99.90;;;;;;5940123;24;20334;-80
2022/09/05 19:52:16;;;;;;;;;;;21.80;99.90;;;;;;5979503;24;19913;-82
2022/09/05 20:05:16;;;;;;;;;;;21.90;99.90;;;;;;5979338;24;19913;-80
2022/09/05 20:07:58;;;;;;;;;;;21.90;99.90;;;;;;5932497;24;20352;-81
2022/09/05 20:17:49;;;;;;;;;;;21.90;99.90;;;;;;6095939;23;19913;-79
2022/09/05 20:20:14;;;;;;;;;;;21.90;99.90;;;;;;6070818;23;19917;-68
2022/09/05 20:22:42;;;;;;;;;;;22.10;99.90;;;;;;6069401;23;19919;-73
2022/09/05 20:25:27;;;;;;;;;;;22.10;99.90;;;;;;6143470;23;20341;-72
2022/09/05 20:27:53;;;;;;;;;;;22.10;99.90;;;;;;6164889;23;19954;-70
2022/09/05 20:30:24;;;;;;;;;;;22.10;99.90;;;;;;6190249;23;19977;-72
2022/09/05 20:32:52;;;;;;;;;;;22.20;99.90;;;;;;6190188;23;19923;-75
2022/09/05 20:35:21;;;;;;;;;;;22.20;99.90;;;;;;6190094;23;19916;-69
2022/09/05 20:37:46;;;;;;;;;;;22.30;99.90;;;;;;6190183;23;19920;-79
2022/09/05 20:40:12;;;;;;;;;;;22.30;99.90;;;;;;6190204;23;19922;-76
2022/09/05 20:42:40;;;;;;;;;;;22.50;99.90;;;;;;6190091;23;19916;-76
2022/09/05 20:45:06;;;;;;;;;;;22.50;99.90;;;;;;6220339;23;19915;-73
2022/09/05 20:47:43;;;;;;;;;;;22.60;99.80;;;;;;6194964;23;20388;-80
2022/09/05 20:50:18;;;;;;;;;;;22.60;99.70;;;;;;6219555;23;19923;-82
2022/09/05 20:52:50;;;;;;;;;;;22.60;99.60;;;;;;6219868;23;19977;-81
2022/09/05 20:55:20;;;;;;;;;;;22.60;99.50;;;;;;6194509;23;20289;-79
2022/09/05 20:57:45;;;;;;;;;;;22.60;99.30;;;;;;6194714;23;19919;-79
2022/09/05 21:00:12;;;;;;;;;;;22.60;99.30;;;;;;6219315;23;19911;-84
2022/09/05 21:02:47;;;;;;;;;;;22.60;99.30;;;;;;6193953;23;19911;-81
2022/09/05 21:05:13;;;;;;;;;;;22.50;99.40;;;;;;6193801;23;19911;-83
2022/09/05 21:07:38;;;;;;;;;;;22.50;99.40;;;;;;6193377;23;19915;-81
2022/09/05 21:10:17;;;;;;;;;;;22.50;99.40;;;;;;6193682;23;20239;-81
2022/09/05 21:12:47;;;;;;;;;;;22.40;99.50;;;;;;6219433;23;19912;-79
2022/09/05 21:15:24;;;;;;;;;;;22.40;99.50;;;;;;6194765;23;19915;-73
